X  Close Metar Aviation Weather Data     YMML Melbourne International Airport
Temperature
10°C Temperature
9°C Dewpoint
94% Humidity



Wind
11 KM/H
7 MPH
3 M/S
6 KTS



200°
SSW
Current Conditions

Drizzle Drizzle
Pressure 1017.92 (hPa) - 30.06 (inHg)
Visibility 3.1 (mile) - 5 (km)
Airport
Airport-code YMML

Location: Melbourne International Airport
Distance: 18 (km)

Metar:
YMML 160912Z 20006KT 5000 DZ BKN016 10/09 Q1018 RF00/0/000/8

Time: 16-08-2022 19:12 AEST